createdAt,value
2023-10-19T00:03:39.252Z,1.48
2023-10-19T00:09:01.057Z,1.20
2023-10-19T00:14:04.808Z,0.90
2023-10-19T00:19:08.309Z,0.98
2023-10-19T00:24:11.218Z,1.00
2023-10-19T00:29:31.802Z,0.60
2023-10-19T00:34:35.554Z,1.20
2023-10-19T00:39:48.191Z,1.10
2023-10-19T00:44:53.485Z,0.93
2023-10-19T00:55:00.519Z,1.63
2023-10-19T01:00:13.512Z,1.63
2023-10-19T01:05:16.462Z,1.23
2023-10-19T01:10:22.854Z,1.95
2023-10-19T01:15:31.170Z,1.55
2023-10-19T01:20:34.102Z,1.67
2023-10-19T01:25:43.807Z,1.52
2023-10-19T01:30:47.213Z,1.77
2023-10-19T01:36:08.811Z,1.98
2023-10-19T01:41:15.117Z,1.67
2023-10-19T01:46:33.297Z,1.60
2023-10-19T01:51:40.240Z,1.60
2023-10-19T01:56:44.914Z,1.35
2023-10-19T02:01:47.793Z,1.48
2023-10-19T02:06:53.261Z,1.30
2023-10-19T02:11:58.511Z,1.67
2023-10-19T02:17:05.687Z,3.15
2023-10-19T02:22:10.083Z,2.42
2023-10-19T02:27:19.775Z,1.55
2023-10-19T02:32:30.328Z,1.60
2023-10-19T02:37:33.115Z,1.40
2023-10-19T02:42:35.824Z,1.38
2023-10-19T02:47:38.912Z,1.58
2023-10-19T02:52:45.084Z,1.50
2023-10-19T02:57:48.116Z,2.45
2023-10-19T03:02:53.568Z,1.75
2023-10-19T03:12:58.904Z,3.33
2023-10-19T03:18:02.864Z,3.45
2023-10-19T03:23:05.802Z,3.40
2023-10-19T03:28:12.875Z,4.38
2023-10-19T03:33:19.733Z,4.70
2023-10-19T03:38:24.167Z,3.85
2023-10-19T03:43:28.744Z,3.95
2023-10-19T03:48:37.719Z,4.50
2023-10-19T03:53:41.415Z,4.25
2023-10-19T03:58:48.717Z,4.63
2023-10-19T04:03:54.163Z,5.15
2023-10-19T04:08:56.878Z,4.05
2023-10-19T04:14:04.883Z,4.53
2023-10-19T04:19:07.582Z,5.63
2023-10-19T04:24:11.059Z,5.13
2023-10-19T04:29:32.968Z,4.57
2023-10-19T04:34:38.266Z,5.38
2023-10-19T04:44:43.481Z,5.40
2023-10-19T04:49:46.357Z,5.57
2023-10-19T04:54:49.103Z,5.82
2023-10-19T04:59:51.796Z,5.95
2023-10-19T05:04:55.264Z,7.15
2023-10-19T05:10:00.166Z,8.45
2023-10-19T05:15:03.071Z,10.68
2023-10-19T05:20:07.113Z,11.73
2023-10-19T05:25:09.999Z,6.60
2023-10-19T05:30:13.979Z,7.32
2023-10-19T05:35:24.160Z,5.38
2023-10-19T05:40:32.737Z,4.50
2023-10-19T05:45:40.257Z,3.40
2023-10-19T05:50:44.345Z,4.22
2023-10-19T05:55:47.524Z,3.25
2023-10-19T06:00:53.676Z,2.95
2023-10-19T06:05:58.241Z,3.90
2023-10-19T06:11:02.395Z,3.17
2023-10-19T06:16:05.625Z,2.70
2023-10-19T06:21:08.637Z,3.75
2023-10-19T06:26:14.292Z,3.67
2023-10-19T06:31:17.018Z,2.05
2023-10-19T06:36:20.668Z,0.82
2023-10-19T06:41:24.088Z,1.33
2023-10-19T06:46:28.707Z,1.17
2023-10-19T06:51:31.695Z,1.30
2023-10-19T06:56:34.458Z,1.88
2023-10-19T07:01:37.820Z,1.67
2023-10-19T07:06:40.978Z,2.42
2023-10-19T07:11:46.212Z,3.30
2023-10-19T07:16:49.139Z,3.65
2023-10-19T07:21:58.970Z,2.35
2023-10-19T07:27:14.154Z,3.20
2023-10-19T07:32:26.126Z,2.15
2023-10-19T07:37:30.418Z,2.60
2023-10-19T07:42:34.516Z,2.38
2023-10-19T07:47:37.494Z,2.58
2023-10-19T07:52:41.196Z,2.33
2023-10-19T07:57:44.774Z,2.70
2023-10-19T08:02:49.017Z,2.00
2023-10-19T08:07:52.097Z,2.17
2023-10-19T08:12:54.843Z,1.88
2023-10-19T08:17:57.737Z,1.60
2023-10-19T08:23:03.450Z,1.95
2023-10-19T08:28:07.869Z,2.40
2023-10-19T08:33:10.722Z,1.88
2023-10-19T08:38:13.562Z,2.03
2023-10-19T08:43:19.534Z,1.77
2023-10-19T08:48:22.316Z,1.55
2023-10-19T08:53:25.799Z,1.92
2023-10-19T08:58:28.997Z,2.28
2023-10-19T09:03:31.953Z,2.88
2023-10-19T09:08:41.160Z,2.47
2023-10-19T09:13:48.447Z,3.45
2023-10-19T09:18:52.971Z,2.80
2023-10-19T09:23:57.504Z,2.03
2023-10-19T09:29:01.149Z,2.50
2023-10-19T09:34:06.977Z,2.70
2023-10-19T09:39:14.153Z,3.45
2023-10-19T09:44:23.303Z,3.17
2023-10-19T09:49:27.277Z,3.42
2023-10-19T09:54:42.778Z,3.08
2023-10-19T09:59:49.028Z,3.33
2023-10-19T10:04:51.799Z,3.35
2023-10-19T10:09:56.139Z,3.22
2023-10-19T10:15:01.019Z,2.95
2023-10-19T10:20:16.049Z,3.50
2023-10-19T10:25:29.479Z,2.95
2023-10-19T10:30:32.909Z,2.10
2023-10-19T10:35:38.969Z,3.10
2023-10-19T10:40:50.109Z,1.63
2023-10-19T10:45:53.882Z,2.35
2023-10-19T10:50:59.892Z,2.17
2023-10-19T10:56:03.148Z,1.65
2023-10-19T11:01:07.484Z,2.05
2023-10-19T11:11:13.705Z,2.10
2023-10-19T11:16:24.955Z,1.80
2023-10-19T11:21:59.714Z,2.08
2023-10-19T11:27:03.885Z,1.60
2023-10-19T11:32:07.540Z,1.90
2023-10-19T11:37:12.574Z,2.05
2023-10-19T11:42:15.270Z,2.10
2023-10-19T11:47:18.122Z,2.47
2023-10-19T11:52:20.826Z,2.10
2023-10-19T11:57:25.074Z,2.30
2023-10-19T12:02:28.396Z,2.22
2023-10-19T12:07:32.120Z,2.28
2023-10-19T12:12:40.021Z,2.92
2023-10-19T12:17:53.467Z,2.40
2023-10-19T12:22:56.399Z,3.35
2023-10-19T12:28:01.175Z,3.47
2023-10-19T12:33:12.819Z,3.40
2023-10-19T12:38:19.048Z,4.25
2023-10-19T12:43:26.445Z,4.75
2023-10-19T12:48:35.055Z,5.45
2023-10-19T12:53:40.116Z,9.90
2023-10-19T12:58:42.986Z,8.35
2023-10-19T13:03:47.456Z,8.80
2023-10-19T13:13:52.757Z,9.23
2023-10-19T13:18:55.520Z,8.68
2023-10-19T13:23:58.197Z,7.95
2023-10-19T13:29:01.037Z,5.82
2023-10-19T13:34:04.793Z,4.65
2023-10-19T13:39:14.354Z,5.03
2023-10-19T13:44:20.478Z,4.40
2023-10-19T13:49:24.385Z,4.20
2023-10-19T13:54:27.677Z,2.78
2023-10-19T13:59:31.500Z,3.35
2023-10-19T14:04:34.145Z,2.80
2023-10-19T14:09:36.983Z,1.92
2023-10-19T14:14:39.754Z,1.95
2023-10-19T14:19:46.380Z,2.40
2023-10-19T14:24:49.268Z,2.63
2023-10-19T14:29:51.951Z,3.55
2023-10-19T14:34:54.681Z,3.03
2023-10-19T14:39:57.539Z,3.55
2023-10-19T14:45:02.545Z,2.72
2023-10-19T14:50:07.789Z,2.65
2023-10-19T14:55:12.147Z,2.58
2023-10-19T15:00:27.550Z,3.10
2023-10-19T15:05:30.314Z,3.47
2023-10-19T15:10:33.191Z,2.97
2023-10-19T15:15:36.004Z,2.95
2023-10-19T15:20:38.742Z,2.85
2023-10-19T15:25:41.753Z,2.53
2023-10-19T15:30:44.610Z,1.70
2023-10-19T15:35:49.694Z,1.67
2023-10-19T15:40:52.430Z,2.20
2023-10-19T15:46:02.738Z,2.50
2023-10-19T15:51:06.206Z,5.18
2023-10-19T15:56:08.940Z,2.50
2023-10-19T16:01:13.903Z,4.30
2023-10-19T16:06:17.818Z,5.95
2023-10-19T16:11:21.470Z,5.53
2023-10-19T16:16:25.493Z,3.70
2023-10-19T16:21:28.298Z,2.20
2023-10-19T16:26:32.370Z,1.98
2023-10-19T16:31:36.149Z,2.28
2023-10-19T16:36:40.374Z,2.20
2023-10-19T16:41:47.664Z,2.78
2023-10-19T16:46:50.660Z,3.10
2023-10-19T16:51:53.308Z,2.90
2023-10-19T16:56:56.093Z,2.08
2023-10-19T17:01:59.496Z,2.10
2023-10-19T17:07:02.259Z,2.58
2023-10-19T17:12:05.183Z,1.77
2023-10-19T17:17:10.105Z,2.00
2023-10-19T17:22:13.112Z,2.30
2023-10-19T17:27:15.870Z,2.35
2023-10-19T17:32:18.625Z,2.33
2023-10-19T17:37:21.578Z,2.63
2023-10-19T17:42:24.257Z,3.55
2023-10-19T17:47:28.704Z,2.90
2023-10-19T17:52:31.562Z,2.97
2023-10-19T17:57:34.845Z,3.05
2023-10-19T18:02:38.681Z,3.45
2023-10-19T18:07:41.930Z,3.97
2023-10-19T18:12:46.068Z,3.70
2023-10-19T18:17:48.890Z,3.78
2023-10-19T18:22:52.317Z,4.38
2023-10-19T18:27:55.714Z,4.95
2023-10-19T18:32:58.550Z,4.80
2023-10-19T18:38:01.793Z,5.10
2023-10-19T18:43:04.667Z,5.00
2023-10-19T18:48:07.637Z,5.00
2023-10-19T18:53:10.391Z,5.90
2023-10-19T18:58:14.552Z,6.30
2023-10-19T19:03:17.424Z,5.47
2023-10-19T19:08:20.433Z,4.70
2023-10-19T19:13:23.139Z,4.95
2023-10-19T19:18:26.610Z,4.82
2023-10-19T19:23:29.772Z,4.82
2023-10-19T19:28:36.780Z,4.03
2023-10-19T19:33:39.723Z,3.30
2023-10-19T19:38:42.637Z,5.82
2023-10-19T19:43:45.442Z,5.57
2023-10-19T19:48:48.397Z,6.07
2023-10-19T19:53:52.212Z,6.47
2023-10-19T19:58:54.947Z,6.05
2023-10-19T20:03:57.698Z,6.30
2023-10-19T20:09:00.462Z,7.13
2023-10-19T20:14:04.018Z,6.45
2023-10-19T20:19:07.770Z,5.22
2023-10-19T20:24:10.711Z,5.75
2023-10-19T20:29:15.071Z,4.88
2023-10-19T20:34:17.954Z,5.35
2023-10-19T20:39:24.513Z,8.65
2023-10-19T20:44:31.370Z,8.73
2023-10-19T20:49:34.487Z,7.57
2023-10-19T20:54:37.347Z,9.05
2023-10-19T20:59:42.571Z,9.95
2023-10-19T21:04:45.208Z,10.88
2023-10-19T21:09:48.384Z,10.30
2023-10-19T21:14:51.450Z,10.35
2023-10-19T21:19:54.294Z,9.02
2023-10-19T21:24:57.441Z,10.43
2023-10-19T21:30:00.154Z,11.23
2023-10-19T21:35:03.202Z,10.13
2023-10-19T21:40:07.817Z,10.30
2023-10-19T21:45:11.276Z,9.82
2023-10-19T21:50:13.959Z,11.00
2023-10-19T21:55:17.607Z,11.30
2023-10-19T22:00:35.142Z,12.23
2023-10-19T22:05:42.550Z,12.88
2023-10-19T22:10:45.821Z,13.75
2023-10-19T22:15:48.505Z,11.57
2023-10-19T22:20:52.283Z,12.20
2023-10-19T22:25:55.072Z,12.07
2023-10-19T22:30:57.853Z,11.40
2023-10-19T22:36:00.491Z,12.63
2023-10-19T22:41:03.287Z,14.32
2023-10-19T22:46:09.663Z,13.00
2023-10-19T22:51:12.407Z,12.32
2023-10-19T22:56:15.281Z,9.98
2023-10-19T23:01:18.006Z,10.55
2023-10-19T23:06:22.410Z,12.13
2023-10-19T23:11:30.621Z,9.65
2023-10-19T23:16:37.255Z,9.32
2023-10-19T23:21:41.301Z,8.18
2023-10-19T23:26:49.902Z,9.85
2023-10-19T23:31:52.583Z,10.05
2023-10-19T23:36:55.434Z,9.65
2023-10-19T23:41:59.360Z,10.85
2023-10-19T23:47:02.197Z,10.18
2023-10-19T23:52:05.110Z,8.90
2023-10-19T23:57:07.794Z,10.02
